createdAt,value
2023-01-28T00:00:17.512Z,21.60
2023-01-28T00:02:49.891Z,19.87
2023-01-28T00:05:19.189Z,20.77
2023-01-28T00:07:51.113Z,19.63
2023-01-28T00:10:22.731Z,21.03
2023-01-28T00:12:52.581Z,19.73
2023-01-28T00:15:21.536Z,17.67
2023-01-28T00:17:50.710Z,20.10
2023-01-28T00:20:19.887Z,19.07
2023-01-28T00:22:52.100Z,19.47
2023-01-28T00:25:23.020Z,19.87
2023-01-28T00:27:52.271Z,18.83
2023-01-28T00:30:21.299Z,18.07
2023-01-28T00:32:50.505Z,19.03
2023-01-28T00:35:21.677Z,18.50
2023-01-28T00:37:51.411Z,17.57
2023-01-28T00:40:22.367Z,18.03
2023-01-28T00:42:52.255Z,17.33
2023-01-28T00:45:23.065Z,17.40
2023-01-28T00:47:52.269Z,17.77
2023-01-28T00:50:22.908Z,18.60
2023-01-28T00:52:52.047Z,16.30
2023-01-28T00:55:22.652Z,15.67
2023-01-28T00:57:52.045Z,16.37
2023-01-28T01:00:22.216Z,16.80
2023-01-28T01:02:51.455Z,18.23
2023-01-28T01:05:20.707Z,17.17
2023-01-28T01:07:50.083Z,17.13
2023-01-28T01:10:22.182Z,17.83
2023-01-28T01:12:52.257Z,18.43
2023-01-28T01:15:22.055Z,17.50
2023-01-28T01:17:52.326Z,19.17
2023-01-28T01:20:24.530Z,18.37
2023-01-28T01:22:53.921Z,19.10
2023-01-28T01:25:24.847Z,18.37
2023-01-28T01:27:53.829Z,19.00
2023-01-28T01:30:22.951Z,17.40
2023-01-28T01:32:52.051Z,16.37
2023-01-28T01:35:21.049Z,16.27
2023-01-28T01:37:50.112Z,15.83
2023-01-28T01:40:19.488Z,16.43
2023-01-28T01:42:50.278Z,15.43
2023-01-28T01:45:19.498Z,16.83
2023-01-28T01:47:53.251Z,15.90
2023-01-28T01:50:28.699Z,15.20
2023-01-28T01:53:02.335Z,15.50
2023-01-28T01:55:37.646Z,16.20
2023-01-28T01:58:12.084Z,15.63
2023-01-28T02:00:42.354Z,14.97
2023-01-28T02:03:12.131Z,15.57
2023-01-28T02:05:41.719Z,14.73
2023-01-28T02:08:23.195Z,15.33
2023-01-28T02:10:56.929Z,14.93
2023-01-28T02:13:32.523Z,13.97
2023-01-28T02:16:04.361Z,15.90
2023-01-28T02:18:35.144Z,13.60
2023-01-28T02:21:28.297Z,12.70
2023-01-28T02:24:26.531Z,12.30
2023-01-28T02:27:16.549Z,12.97
2023-01-28T02:29:52.551Z,12.10
2023-01-28T02:32:27.542Z,12.43
2023-01-28T02:35:05.455Z,12.43
2023-01-28T02:37:40.014Z,13.17
2023-01-28T02:40:13.940Z,12.67
2023-01-28T02:42:43.487Z,11.57
2023-01-28T02:45:46.988Z,13.27
2023-01-28T02:48:16.097Z,11.87
2023-01-28T02:50:54.121Z,12.03
2023-01-28T02:53:44.232Z,12.20
2023-01-28T02:56:29.759Z,11.83
2023-01-28T02:59:23.216Z,11.13
2023-01-28T03:02:02.005Z,13.77
2023-01-28T03:04:34.992Z,12.83
2023-01-28T03:07:08.443Z,13.17
2023-01-28T03:09:41.087Z,12.27
2023-01-28T03:12:31.149Z,12.97
2023-01-28T03:15:19.884Z,13.43
2023-01-28T03:18:11.509Z,13.60
2023-01-28T03:21:06.266Z,13.53
2023-01-28T03:23:59.505Z,14.57
2023-01-28T03:26:50.325Z,13.63
2023-01-28T03:29:40.552Z,13.93
2023-01-28T03:32:31.212Z,14.53
2023-01-28T03:35:19.385Z,13.93
2023-01-28T03:37:49.000Z,14.03
2023-01-28T03:40:24.290Z,13.67
2023-01-28T03:42:54.545Z,13.50
2023-01-28T03:45:34.527Z,13.23
2023-01-28T03:48:06.198Z,13.33
2023-01-28T03:50:36.738Z,13.13
2023-01-28T03:53:16.565Z,13.17
2023-01-28T03:55:55.379Z,14.27
2023-01-28T03:58:27.518Z,13.90
2023-01-28T04:00:57.066Z,13.53
2023-01-28T04:03:26.046Z,14.60
2023-01-28T04:06:04.616Z,13.70
2023-01-28T04:08:55.222Z,13.30
2023-01-28T04:11:53.621Z,12.93
2023-01-28T04:14:35.240Z,12.43
2023-01-28T04:17:11.581Z,13.30
2023-01-28T04:19:41.333Z,12.57
2023-01-28T04:22:13.227Z,13.33
2023-01-28T04:24:44.162Z,14.70
2023-01-28T04:27:13.610Z,14.37
2023-01-28T04:29:43.089Z,12.63
2023-01-28T04:32:30.860Z,13.40
2023-01-28T04:35:11.358Z,13.03
2023-01-28T04:38:14.092Z,13.80
2023-01-28T04:41:09.280Z,13.50
2023-01-28T04:43:38.569Z,14.07
2023-01-28T04:46:36.654Z,13.70
2023-01-28T04:49:17.087Z,14.87
2023-01-28T04:51:54.540Z,13.73
2023-01-28T04:54:25.383Z,14.63
2023-01-28T04:56:58.011Z,14.60
2023-01-28T04:59:27.283Z,15.33
2023-01-28T05:01:56.489Z,14.20
2023-01-28T05:04:25.857Z,14.07
2023-01-28T05:06:55.399Z,14.30
2023-01-28T05:09:30.772Z,13.73
2023-01-28T05:12:00.129Z,14.73
2023-01-28T05:14:28.873Z,14.70
2023-01-28T05:17:09.733Z,22.63
2023-01-28T05:19:41.192Z,16.70
2023-01-28T05:22:16.960Z,16.93
2023-01-28T05:24:52.687Z,17.47
2023-01-28T05:27:22.837Z,16.10
2023-01-28T05:29:54.108Z,15.83
2023-01-28T05:32:23.383Z,16.87
2023-01-28T05:34:52.791Z,18.13
2023-01-28T05:37:21.703Z,17.10
2023-01-28T05:39:56.244Z,16.60
2023-01-28T05:42:25.803Z,19.93
2023-01-28T05:45:09.904Z,20.40
2023-01-28T05:47:58.980Z,15.67
2023-01-28T05:50:40.959Z,17.97
2023-01-28T05:53:24.029Z,17.00
2023-01-28T05:55:56.037Z,17.57
2023-01-28T05:58:28.434Z,18.73
2023-01-28T06:00:58.024Z,18.13
2023-01-28T06:03:33.320Z,16.53
2023-01-28T06:06:02.355Z,16.67
2023-01-28T06:08:31.628Z,18.00
2023-01-28T06:11:03.209Z,17.77
2023-01-28T06:13:35.302Z,20.20
2023-01-28T06:16:24.722Z,18.00
2023-01-28T06:19:12.449Z,16.97
2023-01-28T06:21:43.662Z,17.60
2023-01-28T06:24:14.433Z,16.37
2023-01-28T06:26:45.644Z,17.27
2023-01-28T06:29:14.841Z,16.00
2023-01-28T06:31:43.994Z,16.63
2023-01-28T06:34:13.785Z,16.27
2023-01-28T06:36:42.988Z,17.97
2023-01-28T06:39:12.202Z,17.23
2023-01-28T06:41:41.788Z,17.80
2023-01-28T06:44:13.210Z,16.97
2023-01-28T06:46:42.344Z,17.20
2023-01-28T06:49:11.165Z,16.97
2023-01-28T06:51:40.354Z,16.63
2023-01-28T06:54:09.490Z,18.93
2023-01-28T06:56:38.527Z,17.20
2023-01-28T06:59:08.157Z,15.73
2023-01-28T07:01:39.333Z,17.50
2023-01-28T07:04:09.297Z,16.23
2023-01-28T07:06:38.531Z,16.87
2023-01-28T07:09:07.229Z,16.43
2023-01-28T07:11:37.513Z,16.43
2023-01-28T07:14:06.683Z,16.33
2023-01-28T07:16:36.163Z,15.97
2023-01-28T07:19:09.806Z,16.63
2023-01-28T07:21:39.075Z,17.10
2023-01-28T07:24:08.849Z,18.20
2023-01-28T07:26:37.954Z,16.47
2023-01-28T07:29:07.252Z,17.60
2023-01-28T07:31:36.628Z,20.67
2023-01-28T07:34:07.658Z,19.67
2023-01-28T07:36:37.127Z,18.00
2023-01-28T07:39:07.518Z,19.90
2023-01-28T07:41:36.548Z,19.17
2023-01-28T07:44:09.433Z,18.43
2023-01-28T07:46:38.357Z,19.33
2023-01-28T07:49:08.654Z,20.80
2023-01-28T07:51:37.536Z,18.73
2023-01-28T07:54:06.675Z,20.70
2023-01-28T07:56:35.793Z,19.30
2023-01-28T07:59:04.690Z,18.67
2023-01-28T08:01:33.778Z,19.83
2023-01-28T08:04:02.844Z,18.30
2023-01-28T08:06:38.179Z,20.27
2023-01-28T08:09:08.665Z,19.83
2023-01-28T08:11:41.266Z,19.97
2023-01-28T08:14:10.230Z,18.70
2023-01-28T08:16:39.788Z,18.77
2023-01-28T08:19:08.975Z,18.33
2023-01-28T08:21:40.077Z,17.10
2023-01-28T08:24:09.775Z,16.30
2023-01-28T08:26:38.925Z,16.93
2023-01-28T08:29:07.679Z,16.67
2023-01-28T08:31:37.045Z,17.10
2023-01-28T08:34:06.607Z,17.77
2023-01-28T08:36:35.553Z,17.00
2023-01-28T08:39:10.873Z,18.57
2023-01-28T08:41:39.976Z,17.30
2023-01-28T08:44:08.771Z,18.67
2023-01-28T08:46:37.807Z,18.30
2023-01-28T08:49:06.987Z,18.50
2023-01-28T08:51:36.107Z,19.60
2023-01-28T08:54:06.870Z,18.03
2023-01-28T08:56:35.952Z,19.60
2023-01-28T08:59:05.088Z,17.60
2023-01-28T09:01:34.588Z,18.93
2023-01-28T09:04:04.457Z,17.97
2023-01-28T09:06:33.832Z,18.93
2023-01-28T09:09:03.470Z,19.00
2023-01-28T09:11:36.585Z,18.47
2023-01-28T09:14:05.565Z,19.20
2023-01-28T09:16:35.758Z,19.13
2023-01-28T09:19:04.480Z,21.67
2023-01-28T09:21:33.360Z,20.37
2023-01-28T09:24:05.094Z,19.70
2023-01-28T09:26:36.133Z,19.77
2023-01-28T09:29:05.455Z,20.00
2023-01-28T09:31:35.032Z,18.07
2023-01-28T09:34:04.691Z,20.03
2023-01-28T09:36:33.714Z,19.10
2023-01-28T09:39:03.326Z,19.83
2023-01-28T09:41:46.495Z,20.67
2023-01-28T09:44:31.282Z,19.30
2023-01-28T09:47:03.846Z,18.77
2023-01-28T09:49:40.506Z,19.10
2023-01-28T09:52:16.573Z,18.63
2023-01-28T09:54:50.294Z,17.80
2023-01-28T09:57:25.433Z,17.53
2023-01-28T09:59:54.730Z,18.10
2023-01-28T10:02:37.172Z,17.87
2023-01-28T10:05:18.466Z,17.47
2023-01-28T10:07:56.987Z,17.53
2023-01-28T10:10:32.045Z,17.33
2023-01-28T10:13:25.839Z,17.77
2023-01-28T10:16:14.224Z,17.87
2023-01-28T10:18:48.630Z,17.43
2023-01-28T10:21:23.858Z,16.47
2023-01-28T10:24:00.928Z,19.17
2023-01-28T10:26:36.103Z,17.90
2023-01-28T10:29:14.793Z,17.37
2023-01-28T10:31:52.897Z,18.67
2023-01-28T10:34:23.777Z,16.10
2023-01-28T10:36:53.270Z,17.37
2023-01-28T10:39:24.984Z,17.33
2023-01-28T10:41:58.745Z,16.50
2023-01-28T10:44:36.503Z,15.60
2023-01-28T10:47:11.812Z,14.87
2023-01-28T10:49:45.887Z,15.87
2023-01-28T10:52:16.218Z,17.00
2023-01-28T10:54:45.279Z,15.33
2023-01-28T10:57:17.864Z,15.63
2023-01-28T10:59:50.422Z,16.17
2023-01-28T11:02:28.807Z,14.90
2023-01-28T11:05:06.640Z,16.03
2023-01-28T11:07:36.010Z,15.27
2023-01-28T11:10:05.358Z,15.47
2023-01-28T11:12:34.588Z,14.60
2023-01-28T11:15:07.570Z,14.67
2023-01-28T11:17:40.164Z,14.77
2023-01-28T11:20:15.991Z,14.20
2023-01-28T11:22:46.654Z,14.00
2023-01-28T11:25:20.921Z,14.53
2023-01-28T11:27:51.562Z,14.73
2023-01-28T11:30:28.647Z,13.40
2023-01-28T11:33:00.532Z,13.23
2023-01-28T11:35:32.260Z,13.23
2023-01-28T11:38:02.047Z,13.50
2023-01-28T11:40:31.639Z,12.93
2023-01-28T11:43:00.804Z,13.20
2023-01-28T11:45:45.848Z,12.23
2023-01-28T11:48:29.057Z,13.30
2023-01-28T11:51:05.671Z,13.17
2023-01-28T11:53:50.960Z,12.97
2023-01-28T11:56:33.688Z,12.43
2023-01-28T11:59:19.732Z,13.17
2023-01-28T12:01:59.699Z,12.23
2023-01-28T12:04:48.476Z,12.17
2023-01-28T12:07:34.330Z,12.00
2023-01-28T12:10:10.957Z,10.33
2023-01-28T12:13:04.154Z,10.10
2023-01-28T12:16:21.196Z,9.70
2023-01-28T12:19:37.801Z,9.57
2023-01-28T12:22:22.840Z,9.20
2023-01-28T12:25:07.729Z,7.77
2023-01-28T12:27:47.227Z,7.73
2023-01-28T12:30:27.119Z,8.10
2023-01-28T12:33:16.071Z,7.53
2023-01-28T12:35:59.007Z,7.50
2023-01-28T12:38:43.443Z,6.77
2023-01-28T12:41:15.540Z,6.80
2023-01-28T12:43:59.203Z,6.80
2023-01-28T12:46:43.284Z,6.43
2023-01-28T12:49:18.672Z,6.77
2023-01-28T12:51:59.197Z,6.90
2023-01-28T12:54:37.381Z,7.13
2023-01-28T12:57:08.058Z,6.33
2023-01-28T12:59:45.754Z,6.00
2023-01-28T13:02:23.912Z,6.33
2023-01-28T13:05:01.085Z,5.77
2023-01-28T13:07:37.016Z,6.27
2023-01-28T13:10:13.939Z,6.57
2023-01-28T13:12:43.702Z,7.40
2023-01-28T13:15:15.781Z,7.73
2023-01-28T13:17:56.648Z,8.10
2023-01-28T13:20:38.234Z,7.93
2023-01-28T13:23:23.369Z,9.20
2023-01-28T13:25:55.976Z,9.03
2023-01-28T13:28:29.556Z,8.20
2023-01-28T13:31:05.108Z,9.93
2023-01-28T13:33:36.348Z,9.03
2023-01-28T13:36:18.873Z,8.90
2023-01-28T13:38:48.731Z,9.47
2023-01-28T13:41:20.486Z,8.90
2023-01-28T13:43:49.879Z,7.83
2023-01-28T13:46:29.903Z,8.43
2023-01-28T13:49:01.627Z,8.17
2023-01-28T13:51:34.460Z,8.43
2023-01-28T13:54:07.260Z,8.23
2023-01-28T13:56:53.396Z,8.23
2023-01-28T13:59:40.426Z,7.63
2023-01-28T14:02:54.643Z,7.80
2023-01-28T14:06:03.572Z,7.13
2023-01-28T14:08:53.898Z,7.87
2023-01-28T14:11:42.346Z,7.30
2023-01-28T14:14:38.617Z,7.83
2023-01-28T14:17:18.531Z,6.70
2023-01-28T14:19:48.356Z,8.00
2023-01-28T14:22:20.930Z,7.10
2023-01-28T14:24:51.222Z,7.53
2023-01-28T14:27:32.574Z,7.80
2023-01-28T14:30:16.857Z,6.63
2023-01-28T14:32:49.473Z,6.03
2023-01-28T14:35:24.079Z,6.00
2023-01-28T14:37:54.179Z,4.97
2023-01-28T14:40:23.992Z,4.83
2023-01-28T14:42:56.694Z,5.23
2023-01-28T14:45:40.447Z,5.30
2023-01-28T14:48:25.755Z,5.67
2023-01-28T14:51:16.301Z,4.83
2023-01-28T14:54:05.319Z,4.90
2023-01-28T14:56:44.543Z,5.03
2023-01-28T14:59:21.583Z,4.27
2023-01-28T15:01:57.910Z,3.90
2023-01-28T15:04:28.956Z,4.00
2023-01-28T15:06:59.853Z,5.10
2023-01-28T15:09:29.058Z,4.50
2023-01-28T15:12:02.079Z,4.20
2023-01-28T15:14:34.420Z,4.33
2023-01-28T15:17:06.130Z,4.53
2023-01-28T15:19:38.229Z,4.63
2023-01-28T15:22:09.874Z,4.10
2023-01-28T15:24:43.699Z,5.07
2023-01-28T15:27:20.250Z,6.00
2023-01-28T15:29:55.377Z,5.97
2023-01-28T15:32:29.000Z,6.37
2023-01-28T15:35:01.143Z,4.83
2023-01-28T15:37:30.725Z,4.37
2023-01-28T15:40:06.723Z,3.83
2023-01-28T15:42:38.927Z,4.60
2023-01-28T15:45:18.688Z,4.70
2023-01-28T15:47:51.185Z,4.43
2023-01-28T15:50:23.173Z,4.17
2023-01-28T15:52:55.981Z,4.00
2023-01-28T15:55:40.749Z,4.10
2023-01-28T15:58:22.470Z,3.80
2023-01-28T16:00:52.382Z,4.20
2023-01-28T16:03:26.377Z,4.27
2023-01-28T16:06:01.957Z,4.50
2023-01-28T16:08:39.944Z,4.70
2023-01-28T16:11:11.817Z,4.27
2023-01-28T16:13:45.431Z,4.13
2023-01-28T16:16:15.067Z,4.40
2023-01-28T16:18:49.465Z,4.77
2023-01-28T16:21:24.448Z,5.13
2023-01-28T16:23:54.791Z,4.80
2023-01-28T16:26:25.955Z,5.23
2023-01-28T16:28:55.357Z,4.87
2023-01-28T16:31:28.048Z,5.83
2023-01-28T16:33:58.965Z,4.53
2023-01-28T16:36:28.975Z,5.93
2023-01-28T16:41:31.684Z,5.33
2023-01-28T16:44:06.055Z,5.37
2023-01-28T16:46:35.406Z,5.70
2023-01-28T16:49:07.849Z,5.57
2023-01-28T16:51:39.030Z,5.53
2023-01-28T16:54:09.687Z,5.70
2023-01-28T16:56:47.056Z,5.27
2023-01-28T16:59:19.275Z,5.67
2023-01-28T17:01:51.797Z,5.07
2023-01-28T17:04:24.294Z,5.37
2023-01-28T17:06:54.108Z,6.27
2023-01-28T17:09:23.144Z,5.23
2023-01-28T17:11:52.800Z,5.30
2023-01-28T17:14:26.491Z,5.27
2023-01-28T17:16:57.588Z,6.27
2023-01-28T17:19:28.334Z,5.60
2023-01-28T17:21:57.839Z,5.00
2023-01-28T17:24:27.048Z,5.63
2023-01-28T17:26:57.542Z,5.10
2023-01-28T17:29:26.873Z,4.87
2023-01-28T17:31:56.485Z,4.97
2023-01-28T17:34:31.852Z,5.23
2023-01-28T17:37:01.759Z,4.93
2023-01-28T17:39:31.336Z,5.43
2023-01-28T17:42:00.823Z,5.53
2023-01-28T17:44:29.932Z,5.17
2023-01-28T17:46:59.343Z,5.70
2023-01-28T17:49:32.012Z,5.20
2023-01-28T17:52:01.008Z,5.63
2023-01-28T17:54:30.589Z,5.50
2023-01-28T17:57:00.227Z,5.20
2023-01-28T17:59:30.531Z,6.27
2023-01-28T18:02:00.582Z,5.93
2023-01-28T18:04:33.300Z,6.03
2023-01-28T18:07:03.066Z,6.20
2023-01-28T18:09:32.282Z,5.80
2023-01-28T18:12:03.397Z,4.80
2023-01-28T18:14:32.618Z,3.60
2023-01-28T18:17:05.877Z,3.63
2023-01-28T18:19:38.177Z,5.20
2023-01-28T18:22:07.519Z,6.20
2023-01-28T18:24:37.143Z,6.07
2023-01-28T18:27:06.857Z,6.07
2023-01-28T18:29:36.164Z,7.30
2023-01-28T18:32:05.728Z,7.47
2023-01-28T18:34:36.768Z,10.47
2023-01-28T18:37:08.135Z,6.40
2023-01-28T18:39:38.677Z,6.40
2023-01-28T18:42:09.368Z,5.70
2023-01-28T18:44:39.219Z,5.87
2023-01-28T18:47:08.329Z,6.23
2023-01-28T18:49:42.651Z,5.77
2023-01-28T18:52:12.100Z,6.10
2023-01-28T18:54:41.426Z,6.17
2023-01-28T18:57:11.179Z,6.57
2023-01-28T18:59:39.681Z,6.47
2023-01-28T19:02:09.636Z,5.93
2023-01-28T19:04:40.663Z,6.67
2023-01-28T19:07:11.910Z,6.30
2023-01-28T19:09:41.739Z,6.00
2023-01-28T19:12:12.368Z,6.23
2023-01-28T19:14:41.811Z,5.53
2023-01-28T19:17:10.933Z,6.13
2023-01-28T19:19:41.662Z,6.70
2023-01-28T19:22:11.450Z,6.67
2023-01-28T19:24:40.843Z,6.47
2023-01-28T19:27:11.466Z,6.23
2023-01-28T19:29:40.838Z,6.17
2023-01-28T19:32:11.866Z,6.23
2023-01-28T19:34:42.248Z,5.80
2023-01-28T19:37:13.697Z,3.97
2023-01-28T19:39:43.051Z,3.57
2023-01-28T19:42:14.058Z,3.30
2023-01-28T19:44:43.539Z,3.00
2023-01-28T19:47:13.317Z,3.50
2023-01-28T19:49:44.111Z,2.87
2023-01-28T19:52:13.757Z,3.17
2023-01-28T19:54:42.947Z,2.70
2023-01-28T19:57:15.367Z,2.97
2023-01-28T19:59:44.949Z,3.20
2023-01-28T20:02:14.160Z,3.00
2023-01-28T20:04:59.591Z,2.93
2023-01-28T20:07:30.207Z,3.33
2023-01-28T20:09:59.932Z,3.80
2023-01-28T20:12:29.972Z,4.30
2023-01-28T20:14:59.521Z,4.73
2023-01-28T20:17:29.560Z,4.53
2023-01-28T20:20:00.351Z,3.90
2023-01-28T20:22:31.840Z,4.20
2023-01-28T20:25:01.313Z,4.27
2023-01-28T20:27:31.478Z,4.37
2023-01-28T20:30:01.918Z,5.20
2023-01-28T20:32:31.335Z,3.40
2023-01-28T20:35:03.949Z,3.57
2023-01-28T20:37:35.708Z,3.50
2023-01-28T20:40:05.064Z,3.33
2023-01-28T20:42:36.294Z,3.07
2023-01-28T20:45:12.553Z,3.70
2023-01-28T20:47:49.076Z,3.40
2023-01-28T20:50:19.896Z,3.57
2023-01-28T20:52:49.128Z,3.97
2023-01-28T20:55:18.777Z,4.00
2023-01-28T20:57:48.208Z,4.67
2023-01-28T21:00:18.453Z,4.53
2023-01-28T21:02:48.250Z,4.53
2023-01-28T21:05:19.937Z,4.33
2023-01-28T21:07:49.171Z,3.30
2023-01-28T21:10:19.449Z,3.70
2023-01-28T21:12:48.931Z,4.40
2023-01-28T21:15:18.570Z,4.20
2023-01-28T21:17:48.656Z,4.93
2023-01-28T21:20:20.590Z,4.00
2023-01-28T21:22:52.666Z,4.47
2023-01-28T21:25:22.854Z,3.83
2023-01-28T21:27:52.083Z,4.00
2023-01-28T21:30:21.650Z,4.33
2023-01-28T21:32:50.846Z,4.57
2023-01-28T21:35:21.694Z,4.50
2023-01-28T21:37:50.926Z,3.77
2023-01-28T21:40:21.201Z,5.60
2023-01-28T21:42:50.673Z,4.43
2023-01-28T21:45:20.199Z,5.23
2023-01-28T21:47:49.855Z,5.53
2023-01-28T21:50:19.781Z,5.30
2023-01-28T21:52:54.450Z,4.93
2023-01-28T21:55:23.747Z,5.07
2023-01-28T21:58:14.535Z,4.83
2023-01-28T22:00:42.578Z,4.47
2023-01-28T22:03:11.885Z,4.70
2023-01-28T22:05:44.405Z,4.63
2023-01-28T22:08:15.369Z,4.57
2023-01-28T22:10:45.227Z,5.20
2023-01-28T22:13:14.316Z,5.00
2023-01-28T22:15:43.630Z,6.07
2023-01-28T22:18:15.246Z,5.93
2023-01-28T22:20:44.981Z,5.97
2023-01-28T22:23:15.146Z,6.43
2023-01-28T22:25:44.675Z,6.40
2023-01-28T22:28:14.696Z,7.57
2023-01-28T22:30:45.709Z,7.33
2023-01-28T22:33:17.464Z,7.93
2023-01-28T22:35:46.876Z,8.20
2023-01-28T22:38:17.949Z,9.33
2023-01-28T22:40:47.621Z,9.37
2023-01-28T22:43:16.872Z,10.83
2023-01-28T22:45:46.280Z,11.10
2023-01-28T22:48:15.853Z,10.67
2023-01-28T22:50:45.274Z,8.53
2023-01-28T22:53:14.379Z,7.33
2023-01-28T22:55:45.943Z,7.30
2023-01-28T22:58:15.180Z,6.57
2023-01-28T23:00:46.232Z,6.13
2023-01-28T23:03:15.302Z,5.03
2023-01-28T23:05:45.348Z,5.60
2023-01-28T23:08:14.878Z,4.50
2023-01-28T23:10:50.791Z,5.33
2023-01-28T23:13:21.008Z,4.97
2023-01-28T23:16:08.639Z,4.67
2023-01-28T23:18:56.971Z,5.23
2023-01-28T23:22:00.037Z,5.70
2023-01-28T23:24:33.154Z,4.40
2023-01-28T23:27:04.810Z,4.70
2023-01-28T23:29:34.774Z,4.80
2023-01-28T23:32:05.781Z,4.90
2023-01-28T23:34:38.636Z,4.30
2023-01-28T23:37:10.081Z,4.93
2023-01-28T23:39:39.133Z,4.00
2023-01-28T23:42:23.965Z,3.20
2023-01-28T23:44:55.838Z,4.33
2023-01-28T23:47:25.467Z,4.10
2023-01-28T23:49:54.933Z,4.33
2023-01-28T23:52:24.219Z,4.33
2023-01-28T23:54:53.327Z,5.70
2023-01-28T23:57:23.860Z,4.17
2023-01-28T23:59:53.468Z,4.23
